sensor_id;sensor_type;location;lat;lon;timestamp;P1;durP1;ratioP1;P2;durP2;ratioP2
23060;SDS011;11698;47.690;9.132;2023-03-23T00:01:25;1.95;;;1.30;;
23060;SDS011;11698;47.690;9.132;2023-03-23T00:03:54;1.95;;;1.30;;
23060;SDS011;11698;47.690;9.132;2023-03-23T00:06:25;2.63;;;1.33;;
23060;SDS011;11698;47.690;9.132;2023-03-23T00:08:51;1.42;;;1.30;;
23060;SDS011;11698;47.690;9.132;2023-03-23T00:11:22;2.58;;;1.38;;
23060;SDS011;11698;47.690;9.132;2023-03-23T00:13:49;1.58;;;1.30;;
23060;SDS011;11698;47.690;9.132;2023-03-23T00:16:16;1.63;;;1.20;;
23060;SDS011;11698;47.690;9.132;2023-03-23T00:18:46;1.92;;;1.13;;
23060;SDS011;11698;47.690;9.132;2023-03-23T00:21:14;3.38;;;1.52;;
23060;SDS011;11698;47.690;9.132;2023-03-23T00:23:40;2.10;;;1.30;;
23060;SDS011;11698;47.690;9.132;2023-03-23T00:26:09;2.43;;;1.40;;
23060;SDS011;11698;47.690;9.132;2023-03-23T00:28:36;3.20;;;1.42;;
23060;SDS011;11698;47.690;9.132;2023-03-23T00:31:04;1.80;;;1.20;;
23060;SDS011;11698;47.690;9.132;2023-03-23T00:33:32;1.13;;;0.98;;
23060;SDS011;11698;47.690;9.132;2023-03-23T00:36:06;1.27;;;1.15;;
23060;SDS011;11698;47.690;9.132;2023-03-23T00:38:33;2.23;;;1.30;;
23060;SDS011;11698;47.690;9.132;2023-03-23T00:41:00;2.40;;;1.33;;
23060;SDS011;11698;47.690;9.132;2023-03-23T00:43:27;3.72;;;1.73;;
23060;SDS011;11698;47.690;9.132;2023-03-23T00:45:54;2.38;;;1.58;;
23060;SDS011;11698;47.690;9.132;2023-03-23T00:48:20;3.08;;;1.42;;
23060;SDS011;11698;47.690;9.132;2023-03-23T00:50:46;1.60;;;1.30;;
23060;SDS011;11698;47.690;9.132;2023-03-23T00:53:12;1.75;;;1.35;;
23060;SDS011;11698;47.690;9.132;2023-03-23T00:55:42;2.58;;;1.45;;
23060;SDS011;11698;47.690;9.132;2023-03-23T00:58:09;1.45;;;1.20;;
23060;SDS011;11698;47.690;9.132;2023-03-23T01:00:35;3.10;;;1.27;;
23060;SDS011;11698;47.690;9.132;2023-03-23T01:03:01;2.00;;;1.50;;
23060;SDS011;11698;47.690;9.132;2023-03-23T01:05:27;1.97;;;1.30;;
23060;SDS011;11698;47.690;9.132;2023-03-23T01:07:57;2.70;;;1.58;;
23060;SDS011;11698;47.690;9.132;2023-03-23T01:10:23;3.17;;;1.60;;
23060;SDS011;11698;47.690;9.132;2023-03-23T01:12:49;3.38;;;1.73;;
23060;SDS011;11698;47.690;9.132;2023-03-23T01:15:17;2.53;;;1.85;;
23060;SDS011;11698;47.690;9.132;2023-03-23T01:17:43;2.75;;;1.50;;
23060;SDS011;11698;47.690;9.132;2023-03-23T01:20:09;2.42;;;1.80;;
23060;SDS011;11698;47.690;9.132;2023-03-23T01:22:36;2.28;;;1.63;;
23060;SDS011;11698;47.690;9.132;2023-03-23T01:25:02;2.40;;;1.50;;
23060;SDS011;11698;47.690;9.132;2023-03-23T01:27:28;3.65;;;1.63;;
23060;SDS011;11698;47.690;9.132;2023-03-23T01:29:54;2.70;;;1.40;;
23060;SDS011;11698;47.690;9.132;2023-03-23T01:32:20;2.25;;;1.30;;
23060;SDS011;11698;47.690;9.132;2023-03-23T01:34:46;1.87;;;1.57;;
23060;SDS011;11698;47.690;9.132;2023-03-23T01:37:12;3.38;;;1.60;;
23060;SDS011;11698;47.690;9.132;2023-03-23T01:39:38;3.53;;;1.85;;
23060;SDS011;11698;47.690;9.132;2023-03-23T01:47:46;2.80;;;1.90;;
23060;SDS011;11698;47.690;9.132;2023-03-23T01:50:12;3.72;;;1.90;;
23060;SDS011;11698;47.690;9.132;2023-03-23T01:52:38;2.88;;;1.70;;
23060;SDS011;11698;47.690;9.132;2023-03-23T01:55:04;2.20;;;1.87;;
23060;SDS011;11698;47.690;9.132;2023-03-23T01:57:31;2.25;;;1.58;;
23060;SDS011;11698;47.690;9.132;2023-03-23T01:59:57;2.50;;;1.90;;
23060;SDS011;11698;47.690;9.132;2023-03-23T02:02:24;3.47;;;2.28;;
23060;SDS011;11698;47.690;9.132;2023-03-23T02:04:51;4.13;;;2.00;;
23060;SDS011;11698;47.690;9.132;2023-03-23T02:07:20;2.35;;;2.10;;
23060;SDS011;11698;47.690;9.132;2023-03-23T02:09:49;3.08;;;2.28;;
23060;SDS011;11698;47.690;9.132;2023-03-23T02:12:15;2.80;;;1.98;;
23060;SDS011;11698;47.690;9.132;2023-03-23T02:14:41;2.45;;;1.83;;
23060;SDS011;11698;47.690;9.132;2023-03-23T02:17:12;2.78;;;1.90;;
23060;SDS011;11698;47.690;9.132;2023-03-23T02:22:22;4.07;;;1.75;;
23060;SDS011;11698;47.690;9.132;2023-03-23T02:24:53;3.72;;;2.10;;
23060;SDS011;11698;47.690;9.132;2023-03-23T02:35:25;3.13;;;2.30;;
23060;SDS011;11698;47.690;9.132;2023-03-23T02:38:04;4.10;;;1.90;;
23060;SDS011;11698;47.690;9.132;2023-03-23T02:40:33;3.42;;;1.92;;
23060;SDS011;11698;47.690;9.132;2023-03-23T02:43:02;3.40;;;2.50;;
23060;SDS011;11698;47.690;9.132;2023-03-23T02:45:29;4.50;;;2.33;;
23060;SDS011;11698;47.690;9.132;2023-03-23T02:47:56;3.97;;;2.00;;
23060;SDS011;11698;47.690;9.132;2023-03-23T02:50:23;2.20;;;1.90;;
23060;SDS011;11698;47.690;9.132;2023-03-23T02:52:50;4.70;;;2.42;;
23060;SDS011;11698;47.690;9.132;2023-03-23T02:55:18;3.30;;;2.08;;
23060;SDS011;11698;47.690;9.132;2023-03-23T02:57:46;3.67;;;2.30;;
23060;SDS011;11698;47.690;9.132;2023-03-23T03:00:13;4.82;;;2.22;;
23060;SDS011;11698;47.690;9.132;2023-03-23T03:02:39;7.00;;;2.23;;
23060;SDS011;11698;47.690;9.132;2023-03-23T03:10:08;4.80;;;2.43;;
23060;SDS011;11698;47.690;9.132;2023-03-23T03:12:46;3.60;;;2.00;;
23060;SDS011;11698;47.690;9.132;2023-03-23T03:15:23;2.90;;;2.08;;
23060;SDS011;11698;47.690;9.132;2023-03-23T03:17:53;3.22;;;2.10;;
23060;SDS011;11698;47.690;9.132;2023-03-23T03:20:21;4.07;;;2.15;;
23060;SDS011;11698;47.690;9.132;2023-03-23T03:22:47;3.97;;;2.10;;
23060;SDS011;11698;47.690;9.132;2023-03-23T03:25:14;4.60;;;2.20;;
23060;SDS011;11698;47.690;9.132;2023-03-23T03:27:41;2.88;;;2.15;;
23060;SDS011;11698;47.690;9.132;2023-03-23T03:30:10;3.92;;;2.30;;
23060;SDS011;11698;47.690;9.132;2023-03-23T03:32:41;3.60;;;2.28;;
23060;SDS011;11698;47.690;9.132;2023-03-23T03:35:09;4.57;;;2.37;;
23060;SDS011;11698;47.690;9.132;2023-03-23T03:37:36;3.83;;;2.30;;
23060;SDS011;11698;47.690;9.132;2023-03-23T03:40:05;3.85;;;2.75;;
23060;SDS011;11698;47.690;9.132;2023-03-23T03:42:36;3.75;;;2.75;;
23060;SDS011;11698;47.690;9.132;2023-03-23T03:45:02;4.57;;;3.00;;
23060;SDS011;11698;47.690;9.132;2023-03-23T03:47:28;4.30;;;3.05;;
23060;SDS011;11698;47.690;9.132;2023-03-23T03:49:54;4.57;;;3.13;;
23060;SDS011;11698;47.690;9.132;2023-03-23T03:52:20;4.72;;;3.63;;
23060;SDS011;11698;47.690;9.132;2023-03-23T03:54:46;6.13;;;3.97;;
23060;SDS011;11698;47.690;9.132;2023-03-23T03:57:12;6.43;;;3.80;;
23060;SDS011;11698;47.690;9.132;2023-03-23T03:59:38;5.18;;;3.42;;
23060;SDS011;11698;47.690;9.132;2023-03-23T04:02:05;5.72;;;3.65;;
23060;SDS011;11698;47.690;9.132;2023-03-23T04:04:31;5.93;;;3.80;;
23060;SDS011;11698;47.690;9.132;2023-03-23T04:06:57;5.78;;;3.97;;
23060;SDS011;11698;47.690;9.132;2023-03-23T04:09:23;6.63;;;4.20;;
23060;SDS011;11698;47.690;9.132;2023-03-23T04:11:52;6.00;;;4.35;;
23060;SDS011;11698;47.690;9.132;2023-03-23T04:14:18;6.03;;;3.83;;
23060;SDS011;11698;47.690;9.132;2023-03-23T04:16:44;6.22;;;4.72;;
23060;SDS011;11698;47.690;9.132;2023-03-23T04:19:10;5.65;;;3.90;;
23060;SDS011;11698;47.690;9.132;2023-03-23T04:21:37;5.25;;;4.10;;
23060;SDS011;11698;47.690;9.132;2023-03-23T04:24:03;6.38;;;4.07;;
23060;SDS011;11698;47.690;9.132;2023-03-23T04:26:29;6.35;;;4.30;;
23060;SDS011;11698;47.690;9.132;2023-03-23T04:28:55;6.40;;;4.03;;
23060;SDS011;11698;47.690;9.132;2023-03-23T04:31:24;6.85;;;4.00;;
23060;SDS011;11698;47.690;9.132;2023-03-23T04:33:51;4.30;;;3.70;;
23060;SDS011;11698;47.690;9.132;2023-03-23T04:36:17;5.17;;;3.63;;
23060;SDS011;11698;47.690;9.132;2023-03-23T04:38:43;4.22;;;3.35;;
23060;SDS011;11698;47.690;9.132;2023-03-23T04:41:10;5.63;;;3.85;;
23060;SDS011;11698;47.690;9.132;2023-03-23T04:43:36;4.53;;;3.40;;
23060;SDS011;11698;47.690;9.132;2023-03-23T04:46:06;4.55;;;3.42;;
23060;SDS011;11698;47.690;9.132;2023-03-23T04:48:35;4.85;;;3.05;;
23060;SDS011;11698;47.690;9.132;2023-03-23T04:51:04;4.45;;;3.20;;
23060;SDS011;11698;47.690;9.132;2023-03-23T04:53:30;4.93;;;3.60;;
23060;SDS011;11698;47.690;9.132;2023-03-23T04:55:57;5.50;;;3.20;;
23060;SDS011;11698;47.690;9.132;2023-03-23T04:58:23;4.55;;;2.78;;
23060;SDS011;11698;47.690;9.132;2023-03-23T05:00:49;4.63;;;3.00;;
23060;SDS011;11698;47.690;9.132;2023-03-23T05:03:19;4.55;;;3.00;;
23060;SDS011;11698;47.690;9.132;2023-03-23T05:05:45;4.03;;;3.30;;
23060;SDS011;11698;47.690;9.132;2023-03-23T05:08:22;5.35;;;3.35;;
23060;SDS011;11698;47.690;9.132;2023-03-23T05:10:50;7.88;;;3.55;;
23060;SDS011;11698;47.690;9.132;2023-03-23T05:13:16;6.68;;;3.60;;
23060;SDS011;11698;47.690;9.132;2023-03-23T05:15:42;5.78;;;3.53;;
23060;SDS011;11698;47.690;9.132;2023-03-23T05:18:08;6.03;;;3.50;;
23060;SDS011;11698;47.690;9.132;2023-03-23T05:20:36;5.50;;;3.83;;
23060;SDS011;11698;47.690;9.132;2023-03-23T05:23:02;4.50;;;3.78;;
23060;SDS011;11698;47.690;9.132;2023-03-23T05:25:29;5.18;;;3.60;;
23060;SDS011;11698;47.690;9.132;2023-03-23T05:27:55;4.90;;;3.50;;
23060;SDS011;11698;47.690;9.132;2023-03-23T05:30:21;6.95;;;3.70;;
23060;SDS011;11698;47.690;9.132;2023-03-23T05:32:48;5.50;;;3.63;;
23060;SDS011;11698;47.690;9.132;2023-03-23T05:35:17;5.35;;;3.85;;
23060;SDS011;11698;47.690;9.132;2023-03-23T05:37:43;5.90;;;3.50;;
23060;SDS011;11698;47.690;9.132;2023-03-23T05:40:10;5.50;;;3.25;;
23060;SDS011;11698;47.690;9.132;2023-03-23T05:42:37;5.57;;;3.63;;
23060;SDS011;11698;47.690;9.132;2023-03-23T05:45:05;5.97;;;3.20;;
23060;SDS011;11698;47.690;9.132;2023-03-23T05:47:31;6.82;;;3.90;;
23060;SDS011;11698;47.690;9.132;2023-03-23T05:49:58;6.20;;;3.40;;
23060;SDS011;11698;47.690;9.132;2023-03-23T05:52:25;4.93;;;4.10;;
23060;SDS011;11698;47.690;9.132;2023-03-23T05:54:51;4.63;;;3.42;;
23060;SDS011;11698;47.690;9.132;2023-03-23T05:57:17;5.32;;;3.85;;
23060;SDS011;11698;47.690;9.132;2023-03-23T05:59:44;4.72;;;3.30;;
23060;SDS011;11698;47.690;9.132;2023-03-23T06:02:10;4.17;;;3.77;;
23060;SDS011;11698;47.690;9.132;2023-03-23T06:04:38;4.80;;;3.60;;
23060;SDS011;11698;47.690;9.132;2023-03-23T06:07:05;8.20;;;3.67;;
23060;SDS011;11698;47.690;9.132;2023-03-23T06:09:32;3.85;;;3.38;;
23060;SDS011;11698;47.690;9.132;2023-03-23T06:11:58;4.85;;;3.40;;
23060;SDS011;11698;47.690;9.132;2023-03-23T06:14:24;6.37;;;3.77;;
23060;SDS011;11698;47.690;9.132;2023-03-23T06:16:51;5.95;;;3.40;;
23060;SDS011;11698;47.690;9.132;2023-03-23T06:19:17;5.85;;;3.63;;
23060;SDS011;11698;47.690;9.132;2023-03-23T06:21:43;7.97;;;3.90;;
23060;SDS011;11698;47.690;9.132;2023-03-23T06:24:09;7.10;;;3.63;;
23060;SDS011;11698;47.690;9.132;2023-03-23T06:26:36;5.60;;;3.80;;
23060;SDS011;11698;47.690;9.132;2023-03-23T06:29:03;6.72;;;3.95;;
23060;SDS011;11698;47.690;9.132;2023-03-23T06:31:36;4.72;;;3.60;;
23060;SDS011;11698;47.690;9.132;2023-03-23T06:34:02;3.95;;;3.20;;
23060;SDS011;11698;47.690;9.132;2023-03-23T06:36:29;6.00;;;3.67;;
23060;SDS011;11698;47.690;9.132;2023-03-23T06:38:55;6.07;;;3.67;;
23060;SDS011;11698;47.690;9.132;2023-03-23T06:41:21;4.47;;;3.57;;
23060;SDS011;11698;47.690;9.132;2023-03-23T06:43:47;5.57;;;3.80;;
23060;SDS011;11698;47.690;9.132;2023-03-23T06:46:13;5.53;;;3.53;;
23060;SDS011;11698;47.690;9.132;2023-03-23T06:48:39;5.47;;;3.70;;
23060;SDS011;11698;47.690;9.132;2023-03-23T06:51:06;4.78;;;3.53;;
23060;SDS011;11698;47.690;9.132;2023-03-23T06:53:32;5.57;;;3.90;;
23060;SDS011;11698;47.690;9.132;2023-03-23T06:55:58;6.25;;;3.75;;
23060;SDS011;11698;47.690;9.132;2023-03-23T06:58:24;7.18;;;3.50;;
23060;SDS011;11698;47.690;9.132;2023-03-23T07:00:56;6.43;;;3.53;;
23060;SDS011;11698;47.690;9.132;2023-03-23T07:03:23;3.80;;;3.10;;
23060;SDS011;11698;47.690;9.132;2023-03-23T07:05:50;4.47;;;3.25;;
23060;SDS011;11698;47.690;9.132;2023-03-23T07:08:18;4.27;;;3.10;;
23060;SDS011;11698;47.690;9.132;2023-03-23T07:10:43;5.20;;;3.05;;
23060;SDS011;11698;47.690;9.132;2023-03-23T07:13:10;5.20;;;3.57;;
23060;SDS011;11698;47.690;9.132;2023-03-23T07:15:36;4.97;;;3.60;;
23060;SDS011;11698;47.690;9.132;2023-03-23T07:18:02;5.88;;;3.15;;
23060;SDS011;11698;47.690;9.132;2023-03-23T07:20:28;8.87;;;4.17;;
23060;SDS011;11698;47.690;9.132;2023-03-23T07:22:54;7.80;;;4.20;;
23060;SDS011;11698;47.690;9.132;2023-03-23T07:25:20;7.47;;;4.38;;
23060;SDS011;11698;47.690;9.132;2023-03-23T07:27:46;6.50;;;3.95;;
23060;SDS011;11698;47.690;9.132;2023-03-23T07:30:13;5.18;;;3.30;;
23060;SDS011;11698;47.690;9.132;2023-03-23T07:32:40;7.53;;;3.27;;
23060;SDS011;11698;47.690;9.132;2023-03-23T07:35:06;4.22;;;3.10;;
23060;SDS011;11698;47.690;9.132;2023-03-23T07:37:33;4.43;;;2.88;;
23060;SDS011;11698;47.690;9.132;2023-03-23T07:39:59;4.63;;;3.10;;
23060;SDS011;11698;47.690;9.132;2023-03-23T07:42:25;3.38;;;2.17;;
23060;SDS011;11698;47.690;9.132;2023-03-23T07:44:51;3.92;;;2.10;;
23060;SDS011;11698;47.690;9.132;2023-03-23T07:50:21;2.55;;;1.80;;
23060;SDS011;11698;47.690;9.132;2023-03-23T07:52:49;1.70;;;1.50;;
23060;SDS011;11698;47.690;9.132;2023-03-23T07:55:15;3.70;;;1.88;;
23060;SDS011;11698;47.690;9.132;2023-03-23T07:57:45;2.90;;;1.67;;
23060;SDS011;11698;47.690;9.132;2023-03-23T08:00:12;2.92;;;1.73;;
23060;SDS011;11698;47.690;9.132;2023-03-23T08:02:47;2.20;;;1.77;;
23060;SDS011;11698;47.690;9.132;2023-03-23T08:05:13;3.33;;;2.20;;
23060;SDS011;11698;47.690;9.132;2023-03-23T08:07:40;2.33;;;1.85;;
23060;SDS011;11698;47.690;9.132;2023-03-23T08:10:06;2.75;;;1.77;;
23060;SDS011;11698;47.690;9.132;2023-03-23T08:12:36;2.23;;;1.90;;
23060;SDS011;11698;47.690;9.132;2023-03-23T08:15:03;3.53;;;2.08;;
23060;SDS011;11698;47.690;9.132;2023-03-23T08:17:29;2.83;;;1.95;;
23060;SDS011;11698;47.690;9.132;2023-03-23T08:19:56;2.10;;;1.90;;
23060;SDS011;11698;47.690;9.132;2023-03-23T08:22:22;3.35;;;1.80;;
23060;SDS011;11698;47.690;9.132;2023-03-23T08:24:49;2.50;;;1.92;;
23060;SDS011;11698;47.690;9.132;2023-03-23T08:27:15;3.15;;;2.03;;
23060;SDS011;11698;47.690;9.132;2023-03-23T08:29:43;2.65;;;1.70;;
23060;SDS011;11698;47.690;9.132;2023-03-23T08:32:10;2.92;;;1.80;;
23060;SDS011;11698;47.690;9.132;2023-03-23T08:34:36;3.25;;;1.92;;
23060;SDS011;11698;47.690;9.132;2023-03-23T08:37:02;2.10;;;1.70;;
23060;SDS011;11698;47.690;9.132;2023-03-23T08:39:28;2.83;;;2.10;;
23060;SDS011;11698;47.690;9.132;2023-03-23T08:41:55;2.38;;;1.83;;
23060;SDS011;11698;47.690;9.132;2023-03-23T08:44:21;4.82;;;1.80;;
23060;SDS011;11698;47.690;9.132;2023-03-23T08:46:48;4.63;;;1.88;;
23060;SDS011;11698;47.690;9.132;2023-03-23T08:49:14;3.08;;;1.50;;
23060;SDS011;11698;47.690;9.132;2023-03-23T08:51:40;2.10;;;1.70;;
23060;SDS011;11698;47.690;9.132;2023-03-23T08:54:07;1.77;;;1.50;;
23060;SDS011;11698;47.690;9.132;2023-03-23T08:56:33;2.50;;;1.75;;
23060;SDS011;11698;47.690;9.132;2023-03-23T08:58:59;2.30;;;1.77;;
23060;SDS011;11698;47.690;9.132;2023-03-23T09:01:26;2.55;;;1.83;;
23060;SDS011;11698;47.690;9.132;2023-03-23T09:03:52;3.15;;;1.48;;
23060;SDS011;11698;47.690;9.132;2023-03-23T09:06:19;1.90;;;1.65;;
23060;SDS011;11698;47.690;9.132;2023-03-23T09:08:45;3.55;;;1.88;;
23060;SDS011;11698;47.690;9.132;2023-03-23T09:11:11;2.45;;;1.50;;
23060;SDS011;11698;47.690;9.132;2023-03-23T09:13:37;3.38;;;1.73;;
23060;SDS011;11698;47.690;9.132;2023-03-23T09:16:04;2.45;;;1.65;;
23060;SDS011;11698;47.690;9.132;2023-03-23T09:18:30;2.65;;;1.70;;
23060;SDS011;11698;47.690;9.132;2023-03-23T09:21:00;2.40;;;1.30;;
23060;SDS011;11698;47.690;9.132;2023-03-23T09:23:26;3.20;;;1.60;;
23060;SDS011;11698;47.690;9.132;2023-03-23T09:25:53;2.05;;;1.65;;
23060;SDS011;11698;47.690;9.132;2023-03-23T09:28:20;1.90;;;1.50;;
23060;SDS011;11698;47.690;9.132;2023-03-23T09:30:46;1.83;;;1.65;;
23060;SDS011;11698;47.690;9.132;2023-03-23T09:33:13;1.70;;;1.45;;
23060;SDS011;11698;47.690;9.132;2023-03-23T09:35:39;1.77;;;1.33;;
23060;SDS011;11698;47.690;9.132;2023-03-23T09:38:06;2.95;;;1.58;;
23060;SDS011;11698;47.690;9.132;2023-03-23T09:41:19;3.77;;;1.20;;
23060;SDS011;11698;47.690;9.132;2023-03-23T09:43:38;2.20;;;1.20;;
23060;SDS011;11698;47.690;9.132;2023-03-23T09:53:53;2.03;;;1.13;;
23060;SDS011;11698;47.690;9.132;2023-03-23T09:56:19;1.48;;;1.30;;
23060;SDS011;11698;47.690;9.132;2023-03-23T10:01:16;2.65;;;1.15;;
23060;SDS011;11698;47.690;9.132;2023-03-23T10:03:44;2.58;;;1.20;;
23060;SDS011;11698;47.690;9.132;2023-03-23T10:06:12;1.70;;;1.30;;
23060;SDS011;11698;47.690;9.132;2023-03-23T10:08:43;1.45;;;1.10;;
23060;SDS011;11698;47.690;9.132;2023-03-23T10:11:15;2.30;;;1.00;;
23060;SDS011;11698;47.690;9.132;2023-03-23T10:16:17;2.40;;;1.40;;
23060;SDS011;11698;47.690;9.132;2023-03-23T10:21:17;2.30;;;1.30;;
23060;SDS011;11698;47.690;9.132;2023-03-23T10:23:52;2.50;;;1.20;;
23060;SDS011;11698;47.690;9.132;2023-03-23T10:29:08;1.30;;;0.90;;
23060;SDS011;11698;47.690;9.132;2023-03-23T10:31:40;2.37;;;1.10;;
23060;SDS011;11698;47.690;9.132;2023-03-23T10:34:11;1.00;;;0.87;;
23060;SDS011;11698;47.690;9.132;2023-03-23T10:36:48;1.35;;;1.13;;
23060;SDS011;11698;47.690;9.132;2023-03-23T10:39:18;1.60;;;1.00;;
23060;SDS011;11698;47.690;9.132;2023-03-23T10:41:44;1.05;;;0.85;;
23060;SDS011;11698;47.690;9.132;2023-03-23T10:44:15;1.58;;;0.90;;
23060;SDS011;11698;47.690;9.132;2023-03-23T10:49:12;0.70;;;0.70;;
23060;SDS011;11698;47.690;9.132;2023-03-23T10:51:41;1.25;;;0.80;;
23060;SDS011;11698;47.690;9.132;2023-03-23T10:54:08;1.35;;;0.73;;
23060;SDS011;11698;47.690;9.132;2023-03-23T10:56:39;1.20;;;0.73;;
23060;SDS011;11698;47.690;9.132;2023-03-23T10:59:12;1.52;;;0.88;;
23060;SDS011;11698;47.690;9.132;2023-03-23T11:01:41;0.85;;;0.82;;
23060;SDS011;11698;47.690;9.132;2023-03-23T11:04:12;1.40;;;1.00;;
23060;SDS011;11698;47.690;9.132;2023-03-23T11:06:42;2.38;;;0.80;;
23060;SDS011;11698;47.690;9.132;2023-03-23T11:11:37;2.05;;;1.00;;
23060;SDS011;11698;47.690;9.132;2023-03-23T11:16:42;1.42;;;0.95;;
23060;SDS011;11698;47.690;9.132;2023-03-23T11:19:13;1.70;;;0.95;;
23060;SDS011;11698;47.690;9.132;2023-03-23T11:21:39;1.50;;;0.90;;
23060;SDS011;11698;47.690;9.132;2023-03-23T11:24:07;1.80;;;0.95;;
23060;SDS011;11698;47.690;9.132;2023-03-23T11:26:34;1.30;;;0.95;;
23060;SDS011;11698;47.690;9.132;2023-03-23T11:31:39;2.03;;;0.80;;
23060;SDS011;11698;47.690;9.132;2023-03-23T11:34:16;1.27;;;0.80;;
23060;SDS011;11698;47.690;9.132;2023-03-23T11:36:50;2.33;;;1.02;;
23060;SDS011;11698;47.690;9.132;2023-03-23T11:39:27;2.57;;;0.90;;
23060;SDS011;11698;47.690;9.132;2023-03-23T11:41:54;1.13;;;0.98;;
23060;SDS011;11698;47.690;9.132;2023-03-23T11:44:21;1.52;;;1.13;;
23060;SDS011;11698;47.690;9.132;2023-03-23T11:47:13;1.10;;;0.77;;
23060;SDS011;11698;47.690;9.132;2023-03-23T11:49:43;1.00;;;0.88;;
23060;SDS011;11698;47.690;9.132;2023-03-23T11:52:14;1.10;;;0.98;;
23060;SDS011;11698;47.690;9.132;2023-03-23T11:54:44;2.22;;;1.00;;
23060;SDS011;11698;47.690;9.132;2023-03-23T11:57:12;1.15;;;0.90;;
23060;SDS011;11698;47.690;9.132;2023-03-23T11:59:39;3.27;;;1.00;;
23060;SDS011;11698;47.690;9.132;2023-03-23T12:04:39;1.55;;;1.00;;
23060;SDS011;11698;47.690;9.132;2023-03-23T12:07:13;0.93;;;0.82;;
23060;SDS011;11698;47.690;9.132;2023-03-23T12:09:47;0.95;;;0.75;;
23060;SDS011;11698;47.690;9.132;2023-03-23T12:12:33;1.60;;;1.10;;
23060;SDS011;11698;47.690;9.132;2023-03-23T12:17:45;1.65;;;1.40;;
23060;SDS011;11698;47.690;9.132;2023-03-23T12:20:30;1.88;;;1.10;;
23060;SDS011;11698;47.690;9.132;2023-03-23T12:23:01;1.17;;;0.70;;
23060;SDS011;11698;47.690;9.132;2023-03-23T12:51:37;1.50;;;0.98;;
23060;SDS011;11698;47.690;9.132;2023-03-23T12:59:25;3.00;;;1.30;;
23060;SDS011;11698;47.690;9.132;2023-03-23T13:01:55;1.20;;;0.90;;
23060;SDS011;11698;47.690;9.132;2023-03-23T13:04:25;1.08;;;0.82;;
23060;SDS011;11698;47.690;9.132;2023-03-23T13:06:52;1.10;;;0.95;;
23060;SDS011;11698;47.690;9.132;2023-03-23T13:11:54;2.17;;;0.93;;
23060;SDS011;11698;47.690;9.132;2023-03-23T13:25:15;1.05;;;0.85;;
23060;SDS011;11698;47.690;9.132;2023-03-23T13:27:42;2.30;;;0.90;;
23060;SDS011;11698;47.690;9.132;2023-03-23T13:30:19;1.45;;;0.90;;
23060;SDS011;11698;47.690;9.132;2023-03-23T13:32:49;1.98;;;1.00;;
23060;SDS011;11698;47.690;9.132;2023-03-23T13:35:17;2.70;;;1.03;;
23060;SDS011;11698;47.690;9.132;2023-03-23T13:37:46;2.13;;;1.13;;
23060;SDS011;11698;47.690;9.132;2023-03-23T13:40:19;2.80;;;1.17;;
23060;SDS011;11698;47.690;9.132;2023-03-23T13:42:51;0.93;;;0.80;;
23060;SDS011;11698;47.690;9.132;2023-03-23T13:48:03;1.35;;;1.00;;
23060;SDS011;11698;47.690;9.132;2023-03-23T13:50:30;1.98;;;1.00;;
23060;SDS011;11698;47.690;9.132;2023-03-23T13:52:58;1.25;;;0.90;;
23060;SDS011;11698;47.690;9.132;2023-03-23T14:05:30;2.07;;;0.87;;
23060;SDS011;11698;47.690;9.132;2023-03-23T14:08:02;1.38;;;1.10;;
23060;SDS011;11698;47.690;9.132;2023-03-23T14:16:01;1.75;;;1.17;;
23060;SDS011;11698;47.690;9.132;2023-03-23T14:18:31;2.22;;;0.80;;
23060;SDS011;11698;47.690;9.132;2023-03-23T14:20:57;1.20;;;1.00;;
23060;SDS011;11698;47.690;9.132;2023-03-23T14:23:24;3.30;;;1.10;;
23060;SDS011;11698;47.690;9.132;2023-03-23T14:25:54;1.67;;;0.90;;
23060;SDS011;11698;47.690;9.132;2023-03-23T14:28:20;1.98;;;0.80;;
23060;SDS011;11698;47.690;9.132;2023-03-23T14:30:48;1.88;;;0.90;;
23060;SDS011;11698;47.690;9.132;2023-03-23T14:33:15;1.58;;;1.00;;
23060;SDS011;11698;47.690;9.132;2023-03-23T14:35:42;1.40;;;0.88;;
23060;SDS011;11698;47.690;9.132;2023-03-23T14:38:20;2.38;;;1.10;;
23060;SDS011;11698;47.690;9.132;2023-03-23T14:40:48;3.47;;;1.30;;
23060;SDS011;11698;47.690;9.132;2023-03-23T14:43:15;1.73;;;1.00;;
23060;SDS011;11698;47.690;9.132;2023-03-23T14:45:42;1.95;;;0.77;;
23060;SDS011;11698;47.690;9.132;2023-03-23T14:48:09;1.42;;;1.00;;
23060;SDS011;11698;47.690;9.132;2023-03-23T14:50:38;1.30;;;0.82;;
23060;SDS011;11698;47.690;9.132;2023-03-23T14:53:24;1.40;;;1.13;;
23060;SDS011;11698;47.690;9.132;2023-03-23T14:55:52;0.90;;;0.90;;
23060;SDS011;11698;47.690;9.132;2023-03-23T14:58:19;2.67;;;1.00;;
23060;SDS011;11698;47.690;9.132;2023-03-23T15:03:16;0.88;;;0.70;;
23060;SDS011;11698;47.690;9.132;2023-03-23T15:05:44;1.67;;;1.15;;
23060;SDS011;11698;47.690;9.132;2023-03-23T15:08:18;1.90;;;1.00;;
23060;SDS011;11698;47.690;9.132;2023-03-23T15:10:54;1.48;;;0.95;;
23060;SDS011;11698;47.690;9.132;2023-03-23T15:13:21;2.00;;;1.02;;
23060;SDS011;11698;47.690;9.132;2023-03-23T15:15:47;1.75;;;0.77;;
23060;SDS011;11698;47.690;9.132;2023-03-23T15:18:22;0.70;;;0.60;;
23060;SDS011;11698;47.690;9.132;2023-03-23T15:20:51;1.80;;;1.00;;
23060;SDS011;11698;47.690;9.132;2023-03-23T15:23:22;1.50;;;0.93;;
23060;SDS011;11698;47.690;9.132;2023-03-23T15:25:49;1.90;;;1.33;;
23060;SDS011;11698;47.690;9.132;2023-03-23T15:28:17;1.58;;;0.95;;
23060;SDS011;11698;47.690;9.132;2023-03-23T15:30:47;1.55;;;1.00;;
23060;SDS011;11698;47.690;9.132;2023-03-23T15:33:14;1.20;;;0.80;;
23060;SDS011;11698;47.690;9.132;2023-03-23T15:35:41;1.27;;;0.90;;
23060;SDS011;11698;47.690;9.132;2023-03-23T15:38:26;1.97;;;1.10;;
23060;SDS011;11698;47.690;9.132;2023-03-23T15:40:55;1.15;;;0.60;;
23060;SDS011;11698;47.690;9.132;2023-03-23T15:43:25;1.40;;;0.90;;
23060;SDS011;11698;47.690;9.132;2023-03-23T15:48:19;1.27;;;0.87;;
23060;SDS011;11698;47.690;9.132;2023-03-23T15:50:46;2.40;;;1.10;;
23060;SDS011;11698;47.690;9.132;2023-03-23T15:53:32;2.38;;;1.20;;
23060;SDS011;11698;47.690;9.132;2023-03-23T15:56:02;1.40;;;0.65;;
23060;SDS011;11698;47.690;9.132;2023-03-23T15:58:29;1.27;;;0.98;;
23060;SDS011;11698;47.690;9.132;2023-03-23T16:00:55;2.10;;;1.10;;
23060;SDS011;11698;47.690;9.132;2023-03-23T16:03:25;1.38;;;0.75;;
23060;SDS011;11698;47.690;9.132;2023-03-23T16:05:55;2.40;;;1.02;;
23060;SDS011;11698;47.690;9.132;2023-03-23T16:08:23;3.70;;;1.30;;
23060;SDS011;11698;47.690;9.132;2023-03-23T16:10:49;3.08;;;1.33;;
23060;SDS011;11698;47.690;9.132;2023-03-23T16:13:15;1.10;;;1.00;;
23060;SDS011;11698;47.690;9.132;2023-03-23T16:15:42;2.03;;;1.10;;
23060;SDS011;11698;47.690;9.132;2023-03-23T16:18:16;1.48;;;0.95;;
23060;SDS011;11698;47.690;9.132;2023-03-23T16:20:43;1.33;;;0.90;;
23060;SDS011;11698;47.690;9.132;2023-03-23T16:23:09;2.03;;;0.90;;
23060;SDS011;11698;47.690;9.132;2023-03-23T16:25:35;1.35;;;0.85;;
23060;SDS011;11698;47.690;9.132;2023-03-23T16:28:01;1.13;;;0.90;;
23060;SDS011;11698;47.690;9.132;2023-03-23T16:30:27;1.35;;;1.05;;
23060;SDS011;11698;47.690;9.132;2023-03-23T16:32:54;1.42;;;0.88;;
23060;SDS011;11698;47.690;9.132;2023-03-23T16:35:20;1.83;;;0.82;;
23060;SDS011;11698;47.690;9.132;2023-03-23T16:37:53;2.03;;;1.15;;
23060;SDS011;11698;47.690;9.132;2023-03-23T16:40:19;1.08;;;0.90;;
23060;SDS011;11698;47.690;9.132;2023-03-23T16:42:45;1.20;;;1.05;;
23060;SDS011;11698;47.690;9.132;2023-03-23T16:45:12;1.20;;;0.90;;
23060;SDS011;11698;47.690;9.132;2023-03-23T16:47:39;2.45;;;0.85;;
23060;SDS011;11698;47.690;9.132;2023-03-23T16:50:06;1.60;;;1.23;;
23060;SDS011;11698;47.690;9.132;2023-03-23T16:52:32;2.03;;;1.00;;
23060;SDS011;11698;47.690;9.132;2023-03-23T16:54:58;2.67;;;1.10;;
23060;SDS011;11698;47.690;9.132;2023-03-23T16:57:25;3.25;;;1.20;;
23060;SDS011;11698;47.690;9.132;2023-03-23T16:59:51;1.30;;;1.20;;